sensor_id;sensor_type;location;lat;lon;timestamp;P1;durP1;ratioP1;P2;durP2;ratioP2
31618;SDS011;18230;51.502;7.108;2023-07-30T00:02:50;7.95;;;3.70;;
31618;SDS011;18230;51.502;7.108;2023-07-30T00:07:51;8.40;;;3.53;;
31618;SDS011;18230;51.502;7.108;2023-07-30T00:12:52;10.05;;;3.22;;
31618;SDS011;18230;51.502;7.108;2023-07-30T00:17:53;6.38;;;2.88;;
31618;SDS011;18230;51.502;7.108;2023-07-30T00:22:53;6.80;;;3.30;;
31618;SDS011;18230;51.502;7.108;2023-07-30T00:27:54;12.35;;;3.70;;
31618;SDS011;18230;51.502;7.108;2023-07-30T00:32:55;10.43;;;3.35;;
31618;SDS011;18230;51.502;7.108;2023-07-30T00:37:56;8.93;;;3.33;;
31618;SDS011;18230;51.502;7.108;2023-07-30T00:42:56;13.13;;;3.47;;
31618;SDS011;18230;51.502;7.108;2023-07-30T00:47:57;8.23;;;3.20;;
31618;SDS011;18230;51.502;7.108;2023-07-30T00:52:58;8.68;;;2.47;;
31618;SDS011;18230;51.502;7.108;2023-07-30T00:57:59;9.90;;;3.25;;
31618;SDS011;18230;51.502;7.108;2023-07-30T01:03:00;13.35;;;2.85;;
31618;SDS011;18230;51.502;7.108;2023-07-30T01:08:01;8.38;;;2.70;;
31618;SDS011;18230;51.502;7.108;2023-07-30T01:13:02;15.63;;;3.72;;
31618;SDS011;18230;51.502;7.108;2023-07-30T01:18:04;8.07;;;3.17;;
31618;SDS011;18230;51.502;7.108;2023-07-30T01:23:05;10.50;;;3.83;;
31618;SDS011;18230;51.502;7.108;2023-07-30T01:28:06;13.80;;;3.97;;
31618;SDS011;18230;51.502;7.108;2023-07-30T01:33:12;10.40;;;3.72;;
31618;SDS011;18230;51.502;7.108;2023-07-30T01:38:13;12.13;;;3.45;;
31618;SDS011;18230;51.502;7.108;2023-07-30T01:43:14;12.02;;;3.58;;
31618;SDS011;18230;51.502;7.108;2023-07-30T01:48:15;7.38;;;3.38;;
31618;SDS011;18230;51.502;7.108;2023-07-30T01:53:16;7.90;;;3.38;;
31618;SDS011;18230;51.502;7.108;2023-07-30T01:58:16;10.10;;;3.60;;
31618;SDS011;18230;51.502;7.108;2023-07-30T02:03:17;11.77;;;3.40;;
31618;SDS011;18230;51.502;7.108;2023-07-30T02:08:18;10.93;;;3.53;;
31618;SDS011;18230;51.502;7.108;2023-07-30T02:13:18;12.50;;;3.90;;
31618;SDS011;18230;51.502;7.108;2023-07-30T02:18:20;8.52;;;3.03;;
31618;SDS011;18230;51.502;7.108;2023-07-30T02:23:21;9.57;;;3.13;;
31618;SDS011;18230;51.502;7.108;2023-07-30T02:28:22;9.02;;;3.28;;
31618;SDS011;18230;51.502;7.108;2023-07-30T02:33:22;9.93;;;3.45;;
31618;SDS011;18230;51.502;7.108;2023-07-30T02:38:23;11.13;;;3.90;;
31618;SDS011;18230;51.502;7.108;2023-07-30T02:43:24;11.27;;;3.63;;
31618;SDS011;18230;51.502;7.108;2023-07-30T02:48:24;7.25;;;3.10;;
31618;SDS011;18230;51.502;7.108;2023-07-30T02:53:25;7.70;;;4.00;;
31618;SDS011;18230;51.502;7.108;2023-07-30T02:58:26;9.65;;;3.90;;
31618;SDS011;18230;51.502;7.108;2023-07-30T03:03:26;13.93;;;3.88;;
31618;SDS011;18230;51.502;7.108;2023-07-30T03:08:27;8.80;;;3.67;;
31618;SDS011;18230;51.502;7.108;2023-07-30T03:13:28;9.63;;;3.60;;
31618;SDS011;18230;51.502;7.108;2023-07-30T03:18:28;10.43;;;4.20;;
31618;SDS011;18230;51.502;7.108;2023-07-30T03:23:29;9.65;;;4.00;;
31618;SDS011;18230;51.502;7.108;2023-07-30T03:28:30;12.02;;;4.35;;
31618;SDS011;18230;51.502;7.108;2023-07-30T03:33:31;16.35;;;3.67;;
31618;SDS011;18230;51.502;7.108;2023-07-30T03:38:32;8.85;;;3.25;;
31618;SDS011;18230;51.502;7.108;2023-07-30T03:43:33;11.68;;;3.83;;
31618;SDS011;18230;51.502;7.108;2023-07-30T03:48:34;15.63;;;4.03;;
31618;SDS011;18230;51.502;7.108;2023-07-30T03:53:34;11.02;;;4.35;;
31618;SDS011;18230;51.502;7.108;2023-07-30T03:58:38;12.00;;;4.13;;
31618;SDS011;18230;51.502;7.108;2023-07-30T04:03:39;9.13;;;3.92;;
31618;SDS011;18230;51.502;7.108;2023-07-30T04:08:39;17.15;;;4.43;;
31618;SDS011;18230;51.502;7.108;2023-07-30T04:13:41;8.75;;;3.92;;
31618;SDS011;18230;51.502;7.108;2023-07-30T04:18:42;12.90;;;4.13;;
31618;SDS011;18230;51.502;7.108;2023-07-30T04:23:43;14.43;;;4.25;;
31618;SDS011;18230;51.502;7.108;2023-07-30T04:28:44;14.38;;;3.78;;
31618;SDS011;18230;51.502;7.108;2023-07-30T04:33:44;11.45;;;4.22;;
31618;SDS011;18230;51.502;7.108;2023-07-30T04:38:45;13.70;;;3.95;;
31618;SDS011;18230;51.502;7.108;2023-07-30T04:43:46;11.98;;;4.00;;
31618;SDS011;18230;51.502;7.108;2023-07-30T04:48:47;14.05;;;4.30;;
31618;SDS011;18230;51.502;7.108;2023-07-30T04:53:47;16.90;;;4.50;;
31618;SDS011;18230;51.502;7.108;2023-07-30T04:58:48;11.40;;;3.78;;
31618;SDS011;18230;51.502;7.108;2023-07-30T05:03:49;15.23;;;3.97;;
31618;SDS011;18230;51.502;7.108;2023-07-30T05:08:49;17.77;;;5.13;;
31618;SDS011;18230;51.502;7.108;2023-07-30T05:13:50;15.68;;;4.45;;
31618;SDS011;18230;51.502;7.108;2023-07-30T05:18:51;14.43;;;4.18;;
31618;SDS011;18230;51.502;7.108;2023-07-30T05:23:51;18.13;;;4.18;;
31618;SDS011;18230;51.502;7.108;2023-07-30T05:28:52;15.70;;;4.18;;
31618;SDS011;18230;51.502;7.108;2023-07-30T05:33:53;18.17;;;4.00;;
31618;SDS011;18230;51.502;7.108;2023-07-30T05:38:54;15.40;;;4.03;;
31618;SDS011;18230;51.502;7.108;2023-07-30T05:43:54;11.32;;;4.50;;
31618;SDS011;18230;51.502;7.108;2023-07-30T05:48:55;16.40;;;4.28;;
31618;SDS011;18230;51.502;7.108;2023-07-30T05:53:56;16.92;;;4.70;;
31618;SDS011;18230;51.502;7.108;2023-07-30T05:58:57;14.68;;;4.80;;
31618;SDS011;18230;51.502;7.108;2023-07-30T06:03:57;20.17;;;5.07;;
31618;SDS011;18230;51.502;7.108;2023-07-30T06:08:58;18.45;;;4.78;;
31618;SDS011;18230;51.502;7.108;2023-07-30T06:13:59;22.58;;;5.25;;
31618;SDS011;18230;51.502;7.108;2023-07-30T06:19:00;13.38;;;4.25;;
31618;SDS011;18230;51.502;7.108;2023-07-30T06:24:00;19.20;;;4.82;;
31618;SDS011;18230;51.502;7.108;2023-07-30T06:29:01;15.85;;;5.50;;
31618;SDS011;18230;51.502;7.108;2023-07-30T06:34:02;16.80;;;5.47;;
31618;SDS011;18230;51.502;7.108;2023-07-30T06:39:03;13.75;;;5.15;;
31618;SDS011;18230;51.502;7.108;2023-07-30T06:44:03;15.68;;;3.88;;
31618;SDS011;18230;51.502;7.108;2023-07-30T06:49:04;12.25;;;3.53;;
31618;SDS011;18230;51.502;7.108;2023-07-30T06:54:05;14.00;;;3.42;;
31618;SDS011;18230;51.502;7.108;2023-07-30T06:59:05;11.45;;;3.10;;
31618;SDS011;18230;51.502;7.108;2023-07-30T07:04:06;12.82;;;2.90;;
31618;SDS011;18230;51.502;7.108;2023-07-30T07:09:07;14.13;;;3.00;;
31618;SDS011;18230;51.502;7.108;2023-07-30T07:14:07;12.38;;;2.80;;
31618;SDS011;18230;51.502;7.108;2023-07-30T07:19:08;16.52;;;2.80;;
31618;SDS011;18230;51.502;7.108;2023-07-30T07:24:09;10.98;;;3.20;;
31618;SDS011;18230;51.502;7.108;2023-07-30T07:29:09;13.40;;;3.78;;
31618;SDS011;18230;51.502;7.108;2023-07-30T07:34:10;13.32;;;3.50;;
31618;SDS011;18230;51.502;7.108;2023-07-30T07:39:11;15.43;;;4.28;;
31618;SDS011;18230;51.502;7.108;2023-07-30T07:44:11;14.75;;;3.75;;
31618;SDS011;18230;51.502;7.108;2023-07-30T07:49:12;16.52;;;3.33;;
31618;SDS011;18230;51.502;7.108;2023-07-30T07:54:13;19.38;;;4.10;;
31618;SDS011;18230;51.502;7.108;2023-07-30T07:59:13;9.98;;;3.03;;
31618;SDS011;18230;51.502;7.108;2023-07-30T08:04:14;18.05;;;3.67;;
31618;SDS011;18230;51.502;7.108;2023-07-30T08:09:18;19.42;;;4.25;;
31618;SDS011;18230;51.502;7.108;2023-07-30T08:14:19;12.07;;;3.42;;
31618;SDS011;18230;51.502;7.108;2023-07-30T08:19:24;14.75;;;4.10;;
31618;SDS011;18230;51.502;7.108;2023-07-30T08:24:26;17.10;;;4.35;;
31618;SDS011;18230;51.502;7.108;2023-07-30T08:29:26;18.88;;;4.72;;
31618;SDS011;18230;51.502;7.108;2023-07-30T08:34:27;16.52;;;3.95;;
31618;SDS011;18230;51.502;7.108;2023-07-30T08:39:31;17.88;;;4.20;;
31618;SDS011;18230;51.502;7.108;2023-07-30T08:44:31;17.33;;;4.63;;
31618;SDS011;18230;51.502;7.108;2023-07-30T08:49:32;17.83;;;4.63;;
31618;SDS011;18230;51.502;7.108;2023-07-30T08:54:33;16.13;;;4.18;;
31618;SDS011;18230;51.502;7.108;2023-07-30T08:59:37;18.42;;;4.63;;
31618;SDS011;18230;51.502;7.108;2023-07-30T09:04:47;17.38;;;4.80;;
31618;SDS011;18230;51.502;7.108;2023-07-30T09:09:50;19.90;;;4.35;;
31618;SDS011;18230;51.502;7.108;2023-07-30T09:14:51;18.63;;;5.15;;
31618;SDS011;18230;51.502;7.108;2023-07-30T09:19:52;21.48;;;4.53;;
31618;SDS011;18230;51.502;7.108;2023-07-30T09:24:56;16.77;;;4.40;;
31618;SDS011;18230;51.502;7.108;2023-07-30T09:29:59;17.23;;;4.03;;
31618;SDS011;18230;51.502;7.108;2023-07-30T09:35:04;16.65;;;3.78;;
31618;SDS011;18230;51.502;7.108;2023-07-30T09:40:07;11.07;;;3.60;;
31618;SDS011;18230;51.502;7.108;2023-07-30T09:45:20;19.27;;;4.07;;
31618;SDS011;18230;51.502;7.108;2023-07-30T09:50:22;15.38;;;3.75;;
31618;SDS011;18230;51.502;7.108;2023-07-30T09:55:23;14.52;;;3.88;;
31618;SDS011;18230;51.502;7.108;2023-07-30T10:00:24;11.20;;;3.65;;
31618;SDS011;18230;51.502;7.108;2023-07-30T10:05:27;14.27;;;3.08;;
31618;SDS011;18230;51.502;7.108;2023-07-30T10:10:33;10.48;;;3.00;;
31618;SDS011;18230;51.502;7.108;2023-07-30T10:15:35;18.92;;;3.20;;
31618;SDS011;18230;51.502;7.108;2023-07-30T10:20:37;13.48;;;3.35;;
31618;SDS011;18230;51.502;7.108;2023-07-30T10:30:44;12.05;;;2.78;;
31618;SDS011;18230;51.502;7.108;2023-07-30T10:35:59;13.50;;;2.65;;
31618;SDS011;18230;51.502;7.108;2023-07-30T10:41:09;9.82;;;2.70;;
31618;SDS011;18230;51.502;7.108;2023-07-30T10:46:13;9.90;;;2.40;;
31618;SDS011;18230;51.502;7.108;2023-07-30T10:51:15;10.10;;;2.40;;
31618;SDS011;18230;51.502;7.108;2023-07-30T10:56:21;16.10;;;2.55;;
31618;SDS011;18230;51.502;7.108;2023-07-30T11:01:26;10.93;;;2.72;;
31618;SDS011;18230;51.502;7.108;2023-07-30T11:06:26;9.02;;;2.40;;
31618;SDS011;18230;51.502;7.108;2023-07-30T11:11:27;11.88;;;2.35;;
31618;SDS011;18230;51.502;7.108;2023-07-30T11:16:28;13.45;;;2.80;;
31618;SDS011;18230;51.502;7.108;2023-07-30T11:21:29;11.63;;;2.65;;
31618;SDS011;18230;51.502;7.108;2023-07-30T11:26:30;10.50;;;2.67;;
31618;SDS011;18230;51.502;7.108;2023-07-30T11:31:31;8.63;;;2.20;;
31618;SDS011;18230;51.502;7.108;2023-07-30T11:36:33;11.73;;;2.10;;
31618;SDS011;18230;51.502;7.108;2023-07-30T11:41:33;10.07;;;1.83;;
31618;SDS011;18230;51.502;7.108;2023-07-30T11:46:35;13.02;;;2.60;;
31618;SDS011;18230;51.502;7.108;2023-07-30T11:51:36;7.82;;;2.00;;
31618;SDS011;18230;51.502;7.108;2023-07-30T11:56:36;9.15;;;2.50;;
31618;SDS011;18230;51.502;7.108;2023-07-30T12:01:38;10.55;;;2.50;;
31618;SDS011;18230;51.502;7.108;2023-07-30T12:06:51;13.32;;;3.17;;
31618;SDS011;18230;51.502;7.108;2023-07-30T12:11:57;11.88;;;2.97;;
31618;SDS011;18230;51.502;7.108;2023-07-30T12:16:59;11.27;;;2.50;;
31618;SDS011;18230;51.502;7.108;2023-07-30T12:22:00;11.82;;;2.60;;
31618;SDS011;18230;51.502;7.108;2023-07-30T12:27:01;10.15;;;2.20;;
31618;SDS011;18230;51.502;7.108;2023-07-30T12:32:01;9.18;;;2.05;;
31618;SDS011;18230;51.502;7.108;2023-07-30T12:37:02;8.48;;;2.03;;
31618;SDS011;18230;51.502;7.108;2023-07-30T12:42:04;11.80;;;2.40;;
31618;SDS011;18230;51.502;7.108;2023-07-30T12:47:05;15.93;;;2.28;;
31618;SDS011;18230;51.502;7.108;2023-07-30T12:52:05;7.85;;;1.90;;
31618;SDS011;18230;51.502;7.108;2023-07-30T12:57:06;10.43;;;1.95;;
31618;SDS011;18230;51.502;7.108;2023-07-30T13:02:07;6.85;;;1.60;;
31618;SDS011;18230;51.502;7.108;2023-07-30T13:07:08;12.13;;;2.08;;
31618;SDS011;18230;51.502;7.108;2023-07-30T13:12:09;11.77;;;4.28;;
31618;SDS011;18230;51.502;7.108;2023-07-30T13:17:09;5.75;;;2.33;;
31618;SDS011;18230;51.502;7.108;2023-07-30T13:22:10;5.75;;;1.98;;
31618;SDS011;18230;51.502;7.108;2023-07-30T13:27:11;7.15;;;1.95;;
31618;SDS011;18230;51.502;7.108;2023-07-30T13:32:11;6.72;;;1.80;;
31618;SDS011;18230;51.502;7.108;2023-07-30T13:37:12;7.53;;;1.85;;
31618;SDS011;18230;51.502;7.108;2023-07-30T13:42:13;4.35;;;1.60;;
31618;SDS011;18230;51.502;7.108;2023-07-30T13:47:14;5.22;;;1.60;;
31618;SDS011;18230;51.502;7.108;2023-07-30T13:52:14;4.30;;;1.55;;
31618;SDS011;18230;51.502;7.108;2023-07-30T13:57:22;5.85;;;1.77;;
31618;SDS011;18230;51.502;7.108;2023-07-30T14:02:25;9.27;;;2.28;;
31618;SDS011;18230;51.502;7.108;2023-07-30T14:07:26;9.15;;;1.98;;
31618;SDS011;18230;51.502;7.108;2023-07-30T14:12:27;8.32;;;2.13;;
31618;SDS011;18230;51.502;7.108;2023-07-30T14:17:28;7.38;;;1.77;;
31618;SDS011;18230;51.502;7.108;2023-07-30T14:22:28;13.77;;;2.50;;
31618;SDS011;18230;51.502;7.108;2023-07-30T14:27:29;9.40;;;2.10;;
31618;SDS011;18230;51.502;7.108;2023-07-30T14:32:30;12.60;;;2.45;;
31618;SDS011;18230;51.502;7.108;2023-07-30T14:37:30;7.13;;;2.03;;
31618;SDS011;18230;51.502;7.108;2023-07-30T14:42:31;10.45;;;2.00;;
31618;SDS011;18230;51.502;7.108;2023-07-30T14:47:32;8.05;;;2.55;;
31618;SDS011;18230;51.502;7.108;2023-07-30T14:52:33;7.80;;;2.03;;
31618;SDS011;18230;51.502;7.108;2023-07-30T14:57:34;6.72;;;1.58;;
31618;SDS011;18230;51.502;7.108;2023-07-30T15:02:35;8.27;;;1.95;;
31618;SDS011;18230;51.502;7.108;2023-07-30T15:07:35;11.70;;;2.33;;
31618;SDS011;18230;51.502;7.108;2023-07-30T15:12:36;7.10;;;1.95;;
31618;SDS011;18230;51.502;7.108;2023-07-30T15:17:37;6.43;;;1.92;;
31618;SDS011;18230;51.502;7.108;2023-07-30T15:22:38;7.53;;;2.30;;
31618;SDS011;18230;51.502;7.108;2023-07-30T15:27:38;6.00;;;2.20;;
31618;SDS011;18230;51.502;7.108;2023-07-30T15:32:40;7.25;;;1.80;;
31618;SDS011;18230;51.502;7.108;2023-07-30T15:37:43;8.93;;;2.20;;
31618;SDS011;18230;51.502;7.108;2023-07-30T15:42:45;9.05;;;2.40;;
31618;SDS011;18230;51.502;7.108;2023-07-30T15:47:46;9.85;;;2.30;;
31618;SDS011;18230;51.502;7.108;2023-07-30T15:52:46;10.07;;;1.90;;
31618;SDS011;18230;51.502;7.108;2023-07-30T15:57:47;9.63;;;2.60;;
31618;SDS011;18230;51.502;7.108;2023-07-30T16:02:48;10.43;;;2.63;;
31618;SDS011;18230;51.502;7.108;2023-07-30T16:07:49;5.95;;;1.88;;
31618;SDS011;18230;51.502;7.108;2023-07-30T16:12:50;8.18;;;2.30;;
31618;SDS011;18230;51.502;7.108;2023-07-30T16:17:50;7.25;;;2.15;;
31618;SDS011;18230;51.502;7.108;2023-07-30T16:22:51;10.88;;;2.00;;
31618;SDS011;18230;51.502;7.108;2023-07-30T16:27:52;13.45;;;2.47;;
31618;SDS011;18230;51.502;7.108;2023-07-30T16:32:52;10.93;;;2.38;;
31618;SDS011;18230;51.502;7.108;2023-07-30T16:37:53;8.27;;;2.90;;
31618;SDS011;18230;51.502;7.108;2023-07-30T16:42:54;9.65;;;2.20;;
31618;SDS011;18230;51.502;7.108;2023-07-30T16:47:55;13.23;;;2.40;;
31618;SDS011;18230;51.502;7.108;2023-07-30T16:52:55;7.20;;;1.65;;
31618;SDS011;18230;51.502;7.108;2023-07-30T16:57:56;7.38;;;2.15;;
31618;SDS011;18230;51.502;7.108;2023-07-30T17:02:57;7.78;;;2.15;;
31618;SDS011;18230;51.502;7.108;2023-07-30T17:07:58;8.13;;;2.22;;
31618;SDS011;18230;51.502;7.108;2023-07-30T17:12:58;8.95;;;2.38;;
31618;SDS011;18230;51.502;7.108;2023-07-30T17:17:59;10.23;;;2.75;;
31618;SDS011;18230;51.502;7.108;2023-07-30T17:23:00;5.57;;;2.00;;
31618;SDS011;18230;51.502;7.108;2023-07-30T17:28:00;9.48;;;2.63;;
31618;SDS011;18230;51.502;7.108;2023-07-30T17:33:04;8.93;;;2.60;;
31618;SDS011;18230;51.502;7.108;2023-07-30T17:38:04;7.55;;;2.53;;
31618;SDS011;18230;51.502;7.108;2023-07-30T17:43:05;8.10;;;2.60;;
31618;SDS011;18230;51.502;7.108;2023-07-30T17:48:06;6.28;;;2.10;;
31618;SDS011;18230;51.502;7.108;2023-07-30T17:53:06;6.75;;;2.38;;
31618;SDS011;18230;51.502;7.108;2023-07-30T17:58:07;8.13;;;2.20;;
31618;SDS011;18230;51.502;7.108;2023-07-30T18:03:08;8.30;;;2.38;;
31618;SDS011;18230;51.502;7.108;2023-07-30T18:08:10;9.63;;;2.13;;
31618;SDS011;18230;51.502;7.108;2023-07-30T18:13:11;10.18;;;2.50;;
31618;SDS011;18230;51.502;7.108;2023-07-30T18:18:12;6.82;;;2.15;;
31618;SDS011;18230;51.502;7.108;2023-07-30T18:23:13;8.02;;;2.50;;
31618;SDS011;18230;51.502;7.108;2023-07-30T18:28:14;11.50;;;2.20;;
31618;SDS011;18230;51.502;7.108;2023-07-30T18:33:15;5.55;;;2.00;;
31618;SDS011;18230;51.502;7.108;2023-07-30T18:38:16;10.40;;;3.20;;
31618;SDS011;18230;51.502;7.108;2023-07-30T18:43:16;12.07;;;4.20;;
31618;SDS011;18230;51.502;7.108;2023-07-30T18:48:23;8.75;;;4.15;;
31618;SDS011;18230;51.502;7.108;2023-07-30T18:53:24;10.50;;;3.90;;
31618;SDS011;18230;51.502;7.108;2023-07-30T18:58:25;12.80;;;3.95;;
31618;SDS011;18230;51.502;7.108;2023-07-30T19:03:26;11.23;;;3.58;;
31618;SDS011;18230;51.502;7.108;2023-07-30T19:08:26;5.47;;;2.40;;
31618;SDS011;18230;51.502;7.108;2023-07-30T19:13:27;6.80;;;2.50;;
31618;SDS011;18230;51.502;7.108;2023-07-30T19:18:29;8.55;;;2.40;;
31618;SDS011;18230;51.502;7.108;2023-07-30T19:23:30;9.02;;;2.83;;
31618;SDS011;18230;51.502;7.108;2023-07-30T19:28:31;11.48;;;3.03;;
31618;SDS011;18230;51.502;7.108;2023-07-30T19:33:31;7.38;;;2.78;;
31618;SDS011;18230;51.502;7.108;2023-07-30T19:38:32;8.80;;;2.95;;
31618;SDS011;18230;51.502;7.108;2023-07-30T19:43:33;6.53;;;2.80;;
31618;SDS011;18230;51.502;7.108;2023-07-30T19:48:34;9.35;;;2.92;;
31618;SDS011;18230;51.502;7.108;2023-07-30T19:53:35;10.65;;;3.05;;
31618;SDS011;18230;51.502;7.108;2023-07-30T19:58:35;8.63;;;3.10;;
31618;SDS011;18230;51.502;7.108;2023-07-30T20:03:36;11.80;;;2.60;;
31618;SDS011;18230;51.502;7.108;2023-07-30T20:08:37;5.88;;;2.50;;
31618;SDS011;18230;51.502;7.108;2023-07-30T20:13:38;8.85;;;2.83;;
31618;SDS011;18230;51.502;7.108;2023-07-30T20:18:39;7.20;;;2.78;;
31618;SDS011;18230;51.502;7.108;2023-07-30T20:23:42;5.10;;;2.60;;
31618;SDS011;18230;51.502;7.108;2023-07-30T20:28:47;7.07;;;2.10;;
31618;SDS011;18230;51.502;7.108;2023-07-30T20:33:50;4.47;;;2.08;;
31618;SDS011;18230;51.502;7.108;2023-07-30T20:38:51;5.20;;;1.88;;
31618;SDS011;18230;51.502;7.108;2023-07-30T20:43:51;4.72;;;1.60;;
31618;SDS011;18230;51.502;7.108;2023-07-30T20:48:52;3.90;;;1.95;;
31618;SDS011;18230;51.502;7.108;2023-07-30T20:53:53;2.53;;;1.75;;
31618;SDS011;18230;51.502;7.108;2023-07-30T20:58:54;4.13;;;1.85;;
31618;SDS011;18230;51.502;7.108;2023-07-30T21:03:54;4.82;;;1.90;;
31618;SDS011;18230;51.502;7.108;2023-07-30T21:08:55;4.80;;;1.88;;
31618;SDS011;18230;51.502;7.108;2023-07-30T21:13:55;4.55;;;1.48;;
31618;SDS011;18230;51.502;7.108;2023-07-30T21:18:56;5.22;;;1.88;;
31618;SDS011;18230;51.502;7.108;2023-07-30T21:23:57;5.03;;;2.03;;
31618;SDS011;18230;51.502;7.108;2023-07-30T21:28:58;7.18;;;1.95;;
31618;SDS011;18230;51.502;7.108;2023-07-30T21:33:58;7.95;;;2.53;;
31618;SDS011;18230;51.502;7.108;2023-07-30T21:38:59;8.55;;;3.72;;
31618;SDS011;18230;51.502;7.108;2023-07-30T21:44:00;11.35;;;3.40;;
31618;SDS011;18230;51.502;7.108;2023-07-30T21:49:01;10.65;;;3.53;;
31618;SDS011;18230;51.502;7.108;2023-07-30T21:54:01;9.68;;;4.00;;
31618;SDS011;18230;51.502;7.108;2023-07-30T21:59:02;10.35;;;4.20;;
31618;SDS011;18230;51.502;7.108;2023-07-30T22:04:03;13.05;;;4.20;;
31618;SDS011;18230;51.502;7.108;2023-07-30T22:09:04;8.50;;;3.70;;
31618;SDS011;18230;51.502;7.108;2023-07-30T22:14:05;8.43;;;3.55;;
31618;SDS011;18230;51.502;7.108;2023-07-30T22:19:05;9.10;;;4.00;;
31618;SDS011;18230;51.502;7.108;2023-07-30T22:24:06;11.77;;;3.65;;
31618;SDS011;18230;51.502;7.108;2023-07-30T22:29:07;12.82;;;4.28;;
31618;SDS011;18230;51.502;7.108;2023-07-30T22:34:08;10.75;;;3.97;;
31618;SDS011;18230;51.502;7.108;2023-07-30T22:39:09;15.10;;;4.10;;
31618;SDS011;18230;51.502;7.108;2023-07-30T22:44:09;9.70;;;4.07;;
31618;SDS011;18230;51.502;7.108;2023-07-30T22:49:10;9.05;;;4.10;;
31618;SDS011;18230;51.502;7.108;2023-07-30T22:54:11;8.32;;;4.10;;
31618;SDS011;18230;51.502;7.108;2023-07-30T22:59:11;16.00;;;4.88;;
31618;SDS011;18230;51.502;7.108;2023-07-30T23:04:12;9.73;;;4.30;;
31618;SDS011;18230;51.502;7.108;2023-07-30T23:09:13;8.75;;;4.35;;
31618;SDS011;18230;51.502;7.108;2023-07-30T23:14:14;10.10;;;4.50;;
31618;SDS011;18230;51.502;7.108;2023-07-30T23:19:15;12.25;;;5.00;;
31618;SDS011;18230;51.502;7.108;2023-07-30T23:24:16;12.73;;;5.47;;
31618;SDS011;18230;51.502;7.108;2023-07-30T23:29:17;9.57;;;4.32;;
31618;SDS011;18230;51.502;7.108;2023-07-30T23:34:17;11.50;;;4.28;;
31618;SDS011;18230;51.502;7.108;2023-07-30T23:39:18;7.43;;;3.85;;
31618;SDS011;18230;51.502;7.108;2023-07-30T23:44:19;6.55;;;3.70;;
31618;SDS011;18230;51.502;7.108;2023-07-30T23:49:19;6.95;;;3.60;;
31618;SDS011;18230;51.502;7.108;2023-07-30T23:54:20;10.40;;;3.97;;
31618;SDS011;18230;51.502;7.108;2023-07-30T23:59:21;13.02;;;5.57;;
